Time;durP1;ratioP1;P1;durP2;ratioP2;P2;SDS_P1;SDS_P2;PMS_P1;PMS_P2;Temp;Humidity;BMP_temperature;BMP_pressure;BME280_temperature;BME280_humidity;BME280_pressure;Samples;Min_cycle;Max_cycle;Signal;HPM_P1;HPM_P2
2023/01/26 00:04:27;;;;;;;118.50;42.03;;;;;;;-2.19;74.54;101367.69;10187003;29;20052;-75
2023/01/26 00:09:30;;;;;;;119.38;41.17;;;;;;;-2.12;74.90;101350.91;10183400;29;20419;-76
2023/01/26 00:14:48;;;;;;;116.53;39.45;;;;;;;-2.21;75.61;101341.38;10203866;29;20056;-76
2023/01/26 00:19:53;;;;;;;107.90;39.17;;;;;;;-2.27;75.63;101340.59;10188244;29;20139;-77
2023/01/26 00:24:56;;;;;;;119.50;42.38;;;;;;;-2.31;76.24;101326.56;10192403;29;20044;-75
2023/01/26 00:30:00;;;;;;;109.68;37.42;;;;;;;-2.30;76.47;101330.97;10193091;29;20078;-76
2023/01/26 00:35:06;;;;;;;112.03;37.88;;;;;;;-2.33;76.56;101320.44;10188537;29;20127;-76
2023/01/26 00:40:11;;;;;;;119.47;39.70;;;;;;;-2.21;76.80;101307.13;10197791;29;20051;-75
2023/01/26 00:45:16;;;;;;;113.50;39.92;;;;;;;-2.19;77.03;101300.09;10184870;29;20051;-75
2023/01/26 00:50:19;;;;;;;123.32;40.85;;;;;;;-2.15;76.59;101290.38;10196048;29;20044;-76
2023/01/26 00:55:30;;;;;;;117.20;38.78;;;;;;;-2.04;76.58;101279.72;10205691;29;20048;-76
2023/01/26 01:00:38;;;;;;;118.68;40.05;;;;;;;-2.07;76.85;101285.88;10199031;29;20099;-76
2023/01/26 01:05:40;;;;;;;114.40;39.70;;;;;;;-2.01;76.80;101283.16;10191991;29;20082;-77
2023/01/26 01:10:43;;;;;;;122.25;42.58;;;;;;;-1.99;76.59;101281.38;10186253;29;20039;-76
2023/01/26 01:15:47;;;;;;;132.82;43.45;;;;;;;-1.95;76.69;101276.94;10196516;29;20511;-76
2023/01/26 01:20:50;;;;;;;106.82;35.92;;;;;;;-2.07;76.37;101263.06;10195788;29;20040;-76
2023/01/26 01:25:57;;;;;;;121.57;42.47;;;;;;;-2.00;76.81;101250.69;10200938;29;20570;-75
2023/01/26 01:31:04;;;;;;;118.25;41.03;;;;;;;-1.99;76.57;101248.91;10185220;29;20083;-76
2023/01/26 01:36:10;;;;;;;120.85;41.35;;;;;;;-1.89;77.15;101247.88;10196607;29;20655;-77
2023/01/26 01:41:14;;;;;;;119.15;39.75;;;;;;;-1.73;76.76;101261.66;10197820;29;20044;-76
2023/01/26 01:46:27;;;;;;;101.28;37.95;;;;;;;-1.78;76.49;101251.22;10190412;29;20095;-76
2023/01/26 01:51:34;;;;;;;124.85;42.33;;;;;;;-1.67;76.67;101256.31;10191012;29;20100;-76
2023/01/26 01:56:40;;;;;;;111.22;38.97;;;;;;;-2.03;76.91;101247.19;10185844;29;20079;-76
2023/01/26 02:01:44;;;;;;;114.22;37.33;;;;;;;-1.92;76.88;101242.63;10198690;29;20055;-76
2023/01/26 02:06:50;;;;;;;122.15;41.25;;;;;;;-2.10;77.37;101241.19;10194279;29;20060;-76
2023/01/26 02:11:53;;;;;;;125.72;43.53;;;;;;;-1.91;77.59;101232.09;10191547;29;20041;-76
2023/01/26 02:16:57;;;;;;;116.70;38.10;;;;;;;-1.79;77.09;101233.66;10195849;29;20044;-76
2023/01/26 02:22:07;;;;;;;113.75;37.40;;;;;;;-1.85;76.87;101246.94;10201311;29;20043;-76
2023/01/26 02:27:11;;;;;;;114.22;38.17;;;;;;;-2.08;76.93;101226.22;10195605;29;20052;-75
2023/01/26 02:32:14;;;;;;;115.20;35.25;;;;;;;-2.12;77.95;101229.78;10192873;29;20078;-76
2023/01/26 02:37:17;;;;;;;110.90;37.75;;;;;;;-2.15;78.26;101230.69;10193238;29;20052;-76
2023/01/26 02:42:40;;;;;;;126.97;41.85;;;;;;;-2.48;80.03;101226.78;10194725;29;20107;-76
2023/01/26 02:47:44;;;;;;;108.20;34.13;;;;;;;-2.44;80.70;101230.25;10187783;29;20059;-75
2023/01/26 02:52:47;;;;;;;123.30;39.88;;;;;;;-2.58;81.35;101222.53;10201768;29;20066;-76
2023/01/26 02:57:58;;;;;;;126.22;39.65;;;;;;;-2.39;80.99;101221.38;10193682;29;20067;-76
2023/01/26 03:03:10;;;;;;;128.85;40.17;;;;;;;-2.25;81.33;101222.97;10197109;29;20047;-76
2023/01/26 03:08:12;;;;;;;134.00;38.85;;;;;;;-2.27;80.94;101214.25;10194459;29;20077;-76
2023/01/26 03:13:17;;;;;;;142.15;42.45;;;;;;;-2.45;81.27;101225.88;10188411;29;20052;-76
2023/01/26 03:29:04;;;;;;;126.43;38.42;;;;;;;-2.42;81.68;101231.97;10194012;29;20127;-76
2023/01/26 03:34:08;;;;;;;115.88;36.28;;;;;;;-2.60;82.68;101221.72;10196725;29;20424;-76
2023/01/26 03:41:06;;;;;;;116.45;36.28;;;;;;;-2.50;82.20;101220.66;10208337;29;20044;-76
2023/01/26 04:00:39;;;;;;;116.90;36.55;;;;;;;-2.34;81.69;101201.16;10200964;29;20134;-75
2023/01/26 04:11:20;;;;;;;131.77;39.83;;;;;;;-2.39;81.23;101194.22;10194562;29;20131;-76
2023/01/26 04:21:45;;;;;;;136.10;35.17;;;;;;;-2.36;82.20;101196.78;10214169;29;20055;-76
2023/01/26 04:26:51;;;;;;;135.57;41.47;;;;;;;-2.19;81.35;101188.66;10201365;29;20127;-76
2023/01/26 04:32:00;;;;;;;134.00;39.03;;;;;;;-2.16;81.56;101193.88;10189146;29;20546;-76
2023/01/26 04:37:03;;;;;;;120.13;37.17;;;;;;;-2.17;80.95;101190.34;10181326;29;20055;-76
2023/01/26 04:42:18;;;;;;;137.88;39.65;;;;;;;-2.11;81.64;101194.69;10203632;29;20048;-78
2023/01/26 04:47:22;;;;;;;140.48;37.28;;;;;;;-2.38;81.66;101198.59;10208800;29;20056;-77
2023/01/26 04:52:25;;;;;;;133.25;39.05;;;;;;;-2.38;82.31;101188.94;10188232;29;20096;-78
2023/01/26 04:57:28;;;;;;;123.68;36.83;;;;;;;-2.58;82.79;101196.22;10202029;29;20139;-78
2023/01/26 05:02:33;;;;;;;130.15;35.88;;;;;;;-2.42;81.91;101192.50;10210494;29;20074;-77
2023/01/26 05:07:36;;;;;;;107.53;31.27;;;;;;;-2.55;82.41;101186.56;10209197;29;20139;-77
2023/01/26 05:12:41;;;;;;;122.78;34.67;;;;;;;-2.30;82.40;101175.66;10216605;29;20169;-77
2023/01/26 05:18:07;;;;;;;138.45;40.47;;;;;;;-2.20;82.47;101171.13;10223521;29;20103;-77
2023/01/26 05:23:21;;;;;;;132.80;37.70;;;;;;;-2.02;82.22;101176.09;10213452;29;20051;-76
2023/01/26 05:28:36;;;;;;;148.20;41.75;;;;;;;-2.34;83.21;101180.09;10199203;29;20055;-76
2023/01/26 05:33:41;;;;;;;149.05;42.08;;;;;;;-2.07;82.45;101189.31;10190670;29;20078;-76
2023/01/26 05:38:47;;;;;;;147.10;41.75;;;;;;;-1.97;82.15;101184.78;10184481;29;20075;-78
2023/01/26 05:43:54;;;;;;;137.80;38.53;;;;;;;-2.70;83.52;101184.13;10217034;29;20100;-77
2023/01/26 05:49:27;;;;;;;128.07;38.25;;;;;;;-2.36;83.25;101186.25;10204880;29;20056;-77
2023/01/26 05:54:30;;;;;;;122.20;38.92;;;;;;;-2.22;82.85;101186.97;10206878;29;20067;-77
2023/01/26 05:59:33;;;;;;;132.18;39.08;;;;;;;-2.39;84.32;101175.78;10186755;29;20048;-77
2023/01/26 06:04:40;;;;;;;126.57;38.25;;;;;;;-2.05;82.66;101183.19;10192586;29;20063;-76
2023/01/26 06:09:44;;;;;;;131.32;38.83;;;;;;;-1.95;82.51;101182.13;10206371;29;20042;-77
2023/01/26 06:14:50;;;;;;;146.57;41.55;;;;;;;-1.96;83.17;101188.28;10203512;29;20048;-76
2023/01/26 06:19:54;;;;;;;123.18;36.80;;;;;;;-1.76;82.56;101193.22;10179539;29;20067;-76
2023/01/26 06:24:57;;;;;;;143.48;45.40;;;;;;;-2.12;83.45;101187.66;10201340;29;20423;-76
2023/01/26 06:30:00;;;;;;;117.20;34.97;;;;;;;-2.07;82.83;101191.09;10195575;29;20048;-78
2023/01/26 06:35:07;;;;;;;121.20;36.67;;;;;;;-1.79;82.19;101203.81;10192700;29;20052;-78
2023/01/26 06:40:11;;;;;;;111.72;35.53;;;;;;;-1.92;82.17;101200.50;10183336;29;20082;-76
2023/01/26 06:45:15;;;;;;;109.20;35.05;;;;;;;-1.78;81.95;101203.81;10189984;29;20047;-76
2023/01/26 06:50:25;;;;;;;114.07;36.17;;;;;;;-1.93;82.07;101204.03;10204873;29;20071;-78
2023/01/26 06:55:34;;;;;;;106.20;33.60;;;;;;;-1.94;82.49;101186.50;10205427;29;20488;-76
2023/01/26 07:00:56;;;;;;;99.78;30.08;;;;;;;-1.88;82.16;101189.03;10189437;29;20048;-78
2023/01/26 07:06:11;;;;;;;103.40;32.47;;;;;;;-2.08;82.07;101189.38;10186671;29;20068;-77
2023/01/26 07:11:13;;;;;;;95.78;29.65;;;;;;;-1.96;81.92;101190.94;10197716;29;20043;-77
2023/01/26 07:16:17;;;;;;;87.43;30.98;;;;;;;-1.83;82.03;101192.47;10188339;29;20056;-77
2023/01/26 07:21:22;;;;;;;97.97;30.20;;;;;;;-1.85;81.70;101195.13;10209488;29;20043;-77
2023/01/26 07:26:25;;;;;;;103.43;33.63;;;;;;;-1.73;81.63;101187.91;10216484;29;20103;-76
2023/01/26 07:31:28;;;;;;;97.93;31.90;;;;;;;-1.77;81.78;101192.34;10203923;29;20403;-77
2023/01/26 07:36:32;;;;;;;98.63;33.05;;;;;;;-1.66;81.54;101185.13;10215729;29;20048;-78
2023/01/26 07:41:35;;;;;;;107.57;35.47;;;;;;;-1.67;82.67;101193.94;10184109;29;20044;-77
2023/01/26 07:46:52;;;;;;;103.50;32.35;;;;;;;-1.49;81.55;101190.09;10194202;29;20047;-77
2023/01/26 07:51:56;;;;;;;111.18;34.25;;;;;;;-1.39;81.56;101190.81;10204342;29;20066;-77
2023/01/26 07:56:59;;;;;;;97.88;35.15;;;;;;;-1.51;81.59;101196.28;10213894;29;20115;-78
2023/01/26 08:02:02;;;;;;;118.78;32.40;;;;;;;-1.43;82.09;101197.03;10222621;29;20102;-75
2023/01/26 08:07:06;;;;;;;104.65;30.83;;;;;;;-1.28;81.31;101196.75;10218113;29;20071;-77
2023/01/26 08:12:09;;;;;;;106.05;31.27;;;;;;;-1.23;82.11;101200.16;10190410;29;20044;-76
2023/01/26 08:17:12;;;;;;;122.28;35.72;;;;;;;-1.07;81.52;101195.47;10224605;29;20044;-77
2023/01/26 08:22:16;;;;;;;104.25;33.42;;;;;;;-1.09;80.99;101202.53;10230264;29;20526;-76
2023/01/26 08:27:19;;;;;;;98.28;32.80;;;;;;;-1.09;81.04;101212.22;10216654;29;20051;-76
2023/01/26 08:32:21;;;;;;;93.35;32.38;;;;;;;-1.34;81.33;101217.97;10209297;29;20047;-77
2023/01/26 08:37:26;;;;;;;98.75;31.58;;;;;;;-1.12;80.77;101217.56;10200603;29;20048;-77
2023/01/26 08:42:28;;;;;;;97.38;33.55;;;;;;;-1.15;80.91;101214.94;10212160;29;20040;-77
2023/01/26 08:47:31;;;;;;;107.20;33.60;;;;;;;-0.87;81.21;101217.94;10222987;29;20043;-76
2023/01/26 08:52:35;;;;;;;99.03;31.33;;;;;;;-0.87;80.59;101216.16;10223211;29;20075;-77
2023/01/26 08:57:38;;;;;;;97.88;32.15;;;;;;;-0.94;80.48;101217.19;10213257;29;20048;-78
2023/01/26 09:02:41;;;;;;;109.65;33.53;;;;;;;-0.73;80.66;101211.47;10205593;29;20062;-77
2023/01/26 09:07:45;;;;;;;81.03;26.70;;;;;;;-0.76;79.86;101206.25;10193449;29;20468;-77
2023/01/26 09:12:48;;;;;;;92.97;29.92;;;;;;;-1.04;81.61;101218.25;10217172;29;20071;-78
2023/01/26 09:17:51;;;;;;;104.13;30.88;;;;;;;-0.89;81.09;101220.59;10222476;29;20055;-78
2023/01/26 09:22:55;;;;;;;87.82;27.70;;;;;;;-1.37;81.46;101223.28;10217883;29;20050;-78
2023/01/26 09:27:58;;;;;;;89.85;27.55;;;;;;;-0.99;81.35;101225.19;10216244;29;20075;-78
2023/01/26 09:33:03;;;;;;;88.13;29.50;;;;;;;-1.12;81.14;101204.38;10219695;29;20043;-79
2023/01/26 09:38:07;;;;;;;84.00;27.67;;;;;;;-0.94;81.39;101214.53;10234261;29;20042;-74
2023/01/26 09:43:24;;;;;;;83.32;27.95;;;;;;;-0.86;81.81;101223.16;10213542;29;20040;-75
2023/01/26 09:48:37;;;;;;;89.70;27.23;;;;;;;-0.97;81.94;101233.06;10186446;29;20059;-75
2023/01/26 09:53:46;;;;;;;79.50;27.48;;;;;;;-0.92;82.16;101230.34;10203080;29;20048;-75
2023/01/26 09:58:55;;;;;;;86.53;28.33;;;;;;;-1.12;82.98;101233.38;10196330;29;20468;-76
2023/01/26 10:04:04;;;;;;;95.50;28.20;;;;;;;-0.80;81.50;101224.81;10221739;29;20047;-76
2023/01/26 10:09:16;;;;;;;89.82;28.67;;;;;;;-0.80;81.15;101220.38;10194893;29;20103;-77
2023/01/26 10:14:25;;;;;;;59.50;21.15;;;;;;;-0.79;80.59;101201.03;10193874;29;20556;-77
2023/01/26 10:19:34;;;;;;;82.72;23.88;;;;;;;-0.76;81.17;101208.88;10173007;29;20048;-76
2023/01/26 10:24:39;;;;;;;73.50;22.10;;;;;;;-0.70;81.41;101207.03;10187566;29;20051;-76
2023/01/26 10:29:42;;;;;;;72.22;23.35;;;;;;;-0.68;81.34;101192.91;10189249;29;20760;-77
2023/01/26 10:34:46;;;;;;;81.95;25.77;;;;;;;-0.66;81.68;101199.00;10202426;29;20068;-77
2023/01/26 10:39:59;;;;;;;87.32;26.42;;;;;;;-0.54;80.99;101200.53;10185152;29;20052;-77
2023/01/26 10:45:05;;;;;;;73.78;25.58;;;;;;;-0.51;81.33;101198.66;10182224;29;20044;-77
2023/01/26 10:50:20;;;;;;;74.47;25.70;;;;;;;-0.24;80.77;101187.53;10186365;29;20091;-76
2023/01/26 10:55:25;;;;;;;84.90;27.05;;;;;;;-0.44;80.25;101183.56;10173449;29;20377;-77
2023/01/26 11:00:30;;;;;;;71.75;24.02;;;;;;;-0.56;81.03;101182.06;10183119;29;20548;-75
2023/01/26 11:05:33;;;;;;;69.25;23.20;;;;;;;-0.62;81.15;101169.00;10186915;29;20053;-75
2023/01/26 11:10:50;;;;;;;80.00;24.52;;;;;;;-0.51;81.20;101163.50;10186989;29;20043;-77
2023/01/26 11:16:03;;;;;;;82.55;24.08;;;;;;;-0.42;81.42;101165.06;10188918;29;20115;-77
2023/01/26 11:21:15;;;;;;;81.45;26.20;;;;;;;-0.50;81.04;101168.72;10153801;29;20067;-77
2023/01/26 11:26:46;;;;;;;74.68;26.25;;;;;;;-0.51;81.30;101168.78;10163140;28;20048;-76
2023/01/26 11:31:57;;;;;;;75.28;25.17;;;;;;;-0.54;82.18;101158.28;10163193;28;20051;-77
2023/01/26 11:37:32;;;;;;;77.95;24.80;;;;;;;-0.80;82.66;101162.34;10171916;28;20062;-76
2023/01/26 11:42:44;;;;;;;73.82;24.90;;;;;;;-0.69;83.94;101153.34;10168578;28;20102;-76
2023/01/26 11:47:57;;;;;;;;;;;;;;;-0.49;83.23;101137.94;10162603;28;20489;-77
2023/01/26 11:53:25;;;;;;;82.10;26.23;;;;;;;-0.34;83.44;101136.69;10165717;28;20006;-77
2023/01/26 11:58:35;;;;;;;76.82;25.20;;;;;;;-0.47;83.02;101137.88;10166540;28;20051;-76
2023/01/26 12:03:44;;;;;;;76.47;24.98;;;;;;;-0.16;82.62;101123.06;10160437;28;21092;-76
2023/01/26 12:08:54;;;;;;;83.75;26.80;;;;;;;-0.06;82.23;101126.31;10157036;28;20088;-76
2023/01/26 12:14:12;;;;;;;79.07;26.92;;;;;;;-0.07;82.05;101121.97;10150926;28;20064;-76
2023/01/26 12:19:28;;;;;;;73.35;25.02;;;;;;;-0.07;82.14;101120.19;10151203;28;20114;-76
2023/01/26 12:24:36;;;;;;;70.93;21.92;;;;;;;-0.03;82.47;101104.25;10132322;29;20135;-77
2023/01/26 12:30:08;;;;;;;60.20;20.85;;;;;;;-0.49;83.20;101098.34;10138629;28;20044;-77
2023/01/26 12:35:12;;;;;;;59.50;20.80;;;;;;;-0.23;82.84;101102.13;10160629;28;20047;-77
2023/01/26 12:40:25;;;;;;;53.13;19.25;;;;;;;-0.11;82.07;101101.78;10169699;28;20069;-76
2023/01/26 12:45:35;;;;;;;53.90;17.77;;;;;;;-0.07;82.42;101099.03;10173557;28;20157;-76
2023/01/26 12:50:40;;;;;;;56.58;18.20;;;;;;;-0.15;82.18;101098.38;10157406;28;20048;-77
2023/01/26 12:55:49;;;;;;;57.63;19.88;;;;;;;-0.13;82.25;101085.13;10158734;28;20059;-76
2023/01/26 13:01:01;;;;;;;53.67;18.60;;;;;;;0.15;82.29;101077.34;10155702;29;20463;-76
2023/01/26 13:06:19;;;;;;;51.30;17.40;;;;;;;0.02;82.19;101076.81;10154503;28;20052;-77
2023/01/26 13:11:48;;;;;;;52.55;19.08;;;;;;;0.06;82.40;101080.25;10162969;28;20050;-78
2023/01/26 13:16:52;;;;;;;46.28;17.75;;;;;;;0.23;82.43;101080.66;10158061;28;20044;-76
2023/01/26 13:21:55;;;;;;;44.33;16.65;;;;;;;0.22;81.81;101078.94;10163420;28;20048;-76
2023/01/26 13:26:59;;;;;;;41.90;16.10;;;;;;;0.17;82.16;101083.47;10155220;28;20055;-77
2023/01/26 13:32:35;;;;;;;45.00;15.63;;;;;;;0.20;82.11;101082.53;10158534;28;20048;-76
2023/01/26 13:37:49;;;;;;;47.80;16.77;;;;;;;-0.09;82.57;101076.22;10165130;28;20710;-77
2023/01/26 13:43:00;;;;;;;45.03;16.40;;;;;;;0.11;82.58;101089.78;10169998;28;20057;-78
2023/01/26 13:48:11;;;;;;;46.60;18.02;;;;;;;0.15;83.01;101095.84;10169259;28;20502;-75
2023/01/26 13:53:33;;;;;;;45.13;17.30;;;;;;;0.30;83.03;101090.16;10153477;28;20455;-78
2023/01/26 13:58:36;;;;;;;45.60;15.93;;;;;;;0.25;82.44;101083.25;10162593;28;20309;-77
2023/01/26 14:03:39;;;;;;;42.90;16.23;;;;;;;-0.04;83.76;101087.53;10171089;28;20470;-76
2023/01/26 14:08:51;;;;;;;39.35;14.18;;;;;;;0.16;83.17;101087.91;10158523;28;20710;-76
2023/01/26 14:13:56;;;;;;;39.53;14.77;;;;;;;0.23;83.23;101087.72;10153464;28;20044;-77
2023/01/26 14:19:13;;;;;;;37.25;14.43;;;;;;;0.10;83.49;101089.81;10161380;28;20052;-76
2023/01/26 14:24:17;;;;;;;34.90;14.20;;;;;;;0.25;83.75;101093.81;10165907;28;20062;-77
2023/01/26 14:29:23;;;;;;;37.47;12.70;;;;;;;0.32;83.42;101087.47;10137136;29;21201;-76
2023/01/26 14:34:27;;;;;;;35.30;14.13;;;;;;;0.33;83.24;101092.72;10149354;28;20055;-77
2023/01/26 14:39:32;;;;;;;34.38;14.88;;;;;;;0.28;83.67;101104.34;10153345;28;20063;-77
2023/01/26 14:44:35;;;;;;;35.10;13.32;;;;;;;0.33;84.00;101089.19;10154617;28;20059;-76
2023/01/26 14:49:46;;;;;;;33.10;13.43;;;;;;;0.34;83.78;101093.59;10160991;28;20052;-78
2023/01/26 14:54:53;;;;;;;36.92;14.43;;;;;;;0.23;84.42;101096.50;10160859;28;20059;-77
2023/01/26 14:59:58;;;;;;;35.95;15.10;;;;;;;0.26;84.58;101104.34;10159452;28;20052;-77
2023/01/26 15:05:03;;;;;;;38.55;13.60;;;;;;;0.27;84.81;101114.00;10136199;29;20278;-77
2023/01/26 15:10:34;;;;;;;60.10;16.17;;;;;;;0.26;84.93;101119.34;10145100;28;20066;-77
2023/01/26 15:15:38;;;;;;;44.97;15.38;;;;;;;0.14;84.75;101108.19;10153485;28;21544;-77
2023/01/26 15:20:44;;;;;;;48.00;15.07;;;;;;;0.30;84.82;101106.03;10147323;28;20130;-77
2023/01/26 15:25:48;;;;;;;51.92;17.75;;;;;;;0.42;84.93;101101.31;10171579;28;20051;-77
2023/01/26 15:30:54;;;;;;;51.35;18.95;;;;;;;0.41;84.57;101100.41;10158643;28;20688;-77
2023/01/26 15:35:57;;;;;;;51.25;19.40;;;;;;;0.42;84.81;101094.25;10151303;28;20052;-77
2023/01/26 15:41:01;;;;;;;46.55;16.92;;;;;;;0.41;85.00;101100.41;10158523;28;20082;-78
2023/01/26 15:46:04;;;;;;;35.95;11.95;;;;;;;0.33;84.63;101090.09;10156100;28;20052;-78
2023/01/26 15:51:12;;;;;;;52.38;13.18;;;;;;;0.30;84.84;101094.56;10154663;28;20051;-77
2023/01/26 15:56:16;;;;;;;55.92;15.30;;;;;;;0.28;84.99;101097.25;10145666;28;21409;-77
2023/01/26 16:01:21;;;;;;;55.85;16.08;;;;;;;0.29;85.21;101098.97;10163778;28;20050;-78
2023/01/26 16:06:26;;;;;;;124.35;19.30;;;;;;;0.29;85.29;101090.19;10159483;28;20091;-77
2023/01/26 16:11:35;;;;;;;43.42;15.25;;;;;;;0.33;85.53;101095.38;10155127;28;20066;-77
2023/01/26 16:16:37;;;;;;;73.25;15.38;;;;;;;0.34;85.56;101086.50;10153409;28;20048;-77
2023/01/26 16:21:44;;;;;;;71.80;14.73;;;;;;;0.39;85.32;101094.34;10165493;28;20575;-78
2023/01/26 16:26:49;;;;;;;45.78;14.25;;;;;;;0.40;85.58;101088.13;10157606;28;20062;-78
2023/01/26 16:31:52;;;;;;;69.30;16.38;;;;;;;0.43;85.55;101093.31;10168635;28;20743;-78
2023/01/26 16:36:55;;;;;;;124.65;16.67;;;;;;;0.43;85.76;101090.69;10167164;28;20055;-79
2023/01/26 16:41:59;;;;;;;60.45;17.02;;;;;;;0.39;85.70;101089.03;10176421;29;20127;-78
2023/01/26 16:47:04;;;;;;;87.93;18.35;;;;;;;0.38;85.83;101101.41;10181886;28;20349;-78
2023/01/26 16:52:08;;;;;;;93.68;17.10;;;;;;;0.41;85.95;101100.41;10176508;28;20048;-78
2023/01/26 16:57:12;;;;;;;62.05;15.45;;;;;;;0.44;85.99;101097.72;10154004;28;20520;-78
2023/01/26 17:02:24;;;;;;;94.65;17.27;;;;;;;0.52;85.76;101106.31;10169854;28;20061;-78
2023/01/26 17:07:26;;;;;;;43.70;15.00;;;;;;;0.51;85.87;101108.97;10145800;29;20036;-78
2023/01/26 17:12:31;;;;;;;73.68;17.65;;;;;;;0.51;86.03;101111.63;10148889;29;20141;-78
2023/01/26 17:17:34;;;;;;;59.03;16.42;;;;;;;0.50;86.13;101110.75;10147588;29;21323;-78
2023/01/26 17:22:37;;;;;;;66.90;17.20;;;;;;;0.56;85.99;101112.38;10148378;29;20669;-78
2023/01/26 17:27:42;;;;;;;57.53;16.88;;;;;;;0.50;86.47;101112.53;10143752;29;20058;-79
2023/01/26 17:32:45;;;;;;;44.80;16.75;;;;;;;0.54;86.15;101124.75;10160419;28;20479;-78
2023/01/26 17:37:48;;;;;;;94.03;19.73;;;;;;;0.57;85.96;101127.31;10174141;28;20047;-78
2023/01/26 17:42:52;;;;;;;41.53;15.18;;;;;;;0.54;86.50;101125.63;10175362;28;20076;-78
2023/01/26 17:47:55;;;;;;;61.80;17.85;;;;;;;0.57;86.16;101127.31;10161426;28;20551;-77
2023/01/26 17:52:58;;;;;;;98.20;19.10;;;;;;;0.63;86.23;101131.56;10159367;28;20044;-77
2023/01/26 17:58:04;;;;;;;53.80;15.52;;;;;;;0.63;86.01;101139.50;10168984;28;20055;-77
2023/01/26 18:03:06;;;;;;;73.28;17.95;;;;;;;0.64;86.19;101144.75;10167769;28;20051;-77
2023/01/26 18:08:09;;;;;;;112.53;18.25;;;;;;;0.57;86.42;101143.19;10172653;28;20126;-77
2023/01/26 18:13:14;;;;;;;38.80;14.85;;;;;;;0.70;86.21;101144.56;10173786;28;20059;-76
2023/01/26 18:18:17;;;;;;;46.00;16.55;;;;;;;0.74;86.11;101135.66;10168284;28;20054;-76
2023/01/26 18:23:21;;;;;;;64.00;17.98;;;;;;;0.83;86.43;101137.16;10169082;28;20055;-76
2023/01/26 18:28:25;;;;;;;57.33;19.23;;;;;;;0.86;86.45;101134.44;10174008;28;20048;-76
2023/01/26 18:33:28;;;;;;;57.35;20.42;;;;;;;0.91;86.50;101137.81;10170699;28;20074;-76
2023/01/26 18:38:30;;;;;;;47.65;18.65;;;;;;;0.94;86.37;101129.78;10160854;28;20062;-76
2023/01/26 18:43:34;;;;;;;64.05;21.38;;;;;;;0.96;86.38;101124.44;10155383;28;20047;-76
2023/01/26 18:48:37;;;;;;;46.78;16.60;;;;;;;0.98;86.22;101130.56;10172054;28;20040;-76
2023/01/26 18:53:40;;;;;;;73.75;21.23;;;;;;;0.95;86.27;101133.28;10172175;28;20043;-77
2023/01/26 18:58:45;;;;;;;83.28;21.33;;;;;;;1.00;86.29;101140.19;10166787;28;20051;-77
2023/01/26 19:03:53;;;;;;;89.32;20.77;;;;;;;1.06;86.42;101142.63;10166232;28;20062;-77
2023/01/26 19:08:59;;;;;;;102.88;20.63;;;;;;;1.05;86.32;101138.28;10168296;28;20190;-77
2023/01/26 19:14:05;;;;;;;109.35;19.95;;;;;;;0.99;86.12;101138.47;10172992;28;20138;-77
2023/01/26 19:19:09;;;;;;;102.53;20.67;;;;;;;1.00;86.37;101134.03;10168031;28;20527;-76
2023/01/26 19:24:12;;;;;;;67.47;20.88;;;;;;;1.03;86.31;101140.09;10164267;28;20684;-77
2023/01/26 19:29:16;;;;;;;71.25;22.15;;;;;;;1.03;86.47;101145.38;10170515;28;21176;-77
2023/01/26 19:34:19;;;;;;;74.68;21.65;;;;;;;1.03;86.40;101142.75;10172655;28;20044;-77
2023/01/26 19:39:22;;;;;;;67.38;21.42;;;;;;;1.02;86.50;101148.97;10163785;28;20068;-76
2023/01/26 19:44:26;;;;;;;79.80;22.35;;;;;;;1.04;86.58;101149.78;10161169;28;20052;-76
2023/01/26 19:49:29;;;;;;;87.40;24.45;;;;;;;1.04;86.36;101147.13;10169611;28;21216;-76
2023/01/26 19:54:32;;;;;;;117.80;21.77;;;;;;;0.84;86.54;101154.75;10170995;28;20556;-76
2023/01/26 19:59:36;;;;;;;80.53;23.40;;;;;;;0.73;86.65;101159.50;10164457;28;20106;-76
2023/01/26 20:04:39;;;;;;;115.43;23.00;;;;;;;0.48;87.86;101156.66;10171760;28;20048;-77
2023/01/26 20:09:42;;;;;;;212.93;27.45;;;;;;;0.65;87.80;101157.06;10163138;28;20127;-77
2023/01/26 20:14:47;;;;;;;134.45;29.05;;;;;;;0.84;86.84;101157.41;10153640;28;20564;-76
2023/01/26 20:19:50;;;;;;;85.10;25.30;;;;;;;0.94;86.71;101155.38;10144716;28;20455;-77
2023/01/26 20:24:54;;;;;;;120.90;26.40;;;;;;;0.96;86.61;101154.44;10145780;28;20051;-77
2023/01/26 20:29:58;;;;;;;85.05;24.52;;;;;;;0.97;86.74;101150.88;10152396;28;20058;-76
2023/01/26 20:35:01;;;;;;;103.90;26.92;;;;;;;0.99;86.79;101142.88;10155546;28;20051;-76
2023/01/26 20:40:05;;;;;;;87.35;24.67;;;;;;;0.96;86.90;101141.19;10159867;28;20528;-77
2023/01/26 20:45:14;;;;;;;105.15;26.98;;;;;;;0.99;86.78;101137.59;10161514;28;20051;-77
2023/01/26 20:50:17;;;;;;;88.03;26.58;;;;;;;1.01;86.76;101147.19;10138730;29;20055;-77
2023/01/26 20:55:20;;;;;;;74.30;25.08;;;;;;;1.08;86.60;101147.03;10147258;28;20044;-75
2023/01/26 21:00:24;;;;;;;67.95;23.30;;;;;;;1.12;86.74;101146.03;10140411;28;20526;-79
2023/01/26 21:05:27;;;;;;;76.03;23.60;;;;;;;1.07;86.72;101143.53;10176385;28;20121;-77
2023/01/26 21:10:29;;;;;;;73.90;25.77;;;;;;;1.11;86.83;101145.16;10180988;28;20056;-76
2023/01/26 21:15:34;;;;;;;77.57;25.10;;;;;;;1.13;86.91;101143.34;10183652;28;20062;-77
2023/01/26 21:20:36;;;;;;;78.07;26.35;;;;;;;1.19;87.01;101140.50;10176361;28;20044;-76
2023/01/26 21:25:39;;;;;;;72.78;23.70;;;;;;;1.21;86.77;101148.41;10173971;28;20051;-76
2023/01/26 21:30:43;;;;;;;71.18;24.48;;;;;;;1.24;86.82;101143.03;10170835;28;20051;-77
2023/01/26 21:35:55;;;;;;;66.90;25.45;;;;;;;1.28;86.93;101142.00;10173671;28;20071;-77
2023/01/26 21:40:59;;;;;;;85.63;28.48;;;;;;;1.33;86.94;101129.50;10173275;28;20404;-76
2023/01/26 21:46:04;;;;;;;81.15;26.77;;;;;;;1.45;87.10;101133.53;10164457;28;20059;-77
2023/01/26 21:56:42;;;;;;;91.40;29.63;;;;;;;1.52;86.79;101148.34;10108422;23;20137;-74
2023/01/26 22:01:48;;;;;;;98.05;30.67;;;;;;;1.41;86.69;101161.03;10200578;29;20100;-76
2023/01/26 22:06:51;;;;;;;71.55;23.67;;;;;;;1.39;86.66;101161.06;10203696;29;20062;-76
2023/01/26 22:11:54;;;;;;;67.88;22.85;;;;;;;1.40;86.19;101159.28;10210115;29;20042;-75
2023/01/26 22:16:58;;;;;;;49.38;18.55;;;;;;;1.34;85.97;101167.44;10210656;29;20082;-75
2023/01/26 22:22:02;;;;;;;50.05;18.10;;;;;;;1.33;86.25;101171.00;10207448;29;20079;-75
2023/01/26 22:27:05;;;;;;;51.58;19.52;;;;;;;1.28;85.94;101168.47;10190998;29;20048;-75
2023/01/26 22:32:09;;;;;;;48.85;17.33;;;;;;;1.31;86.14;101175.47;10190812;29;20051;-74
2023/01/26 22:37:12;;;;;;;53.53;18.50;;;;;;;1.32;86.25;101185.13;10201649;29;20074;-74
2023/01/26 22:42:15;;;;;;;61.33;21.25;;;;;;;1.27;86.20;101178.22;10199824;29;20089;-75
2023/01/26 22:47:19;;;;;;;58.80;21.02;;;;;;;1.26;86.11;101181.78;10184826;29;20396;-75
2023/01/26 22:52:22;;;;;;;60.65;21.77;;;;;;;1.28;85.95;101177.28;10190503;29;20043;-74
2023/01/26 22:57:25;;;;;;;52.08;20.40;;;;;;;1.30;86.13;101190.50;10197096;29;20067;-74
2023/01/26 23:02:29;;;;;;;58.92;21.48;;;;;;;1.23;86.26;101191.56;10194575;29;20138;-75
2023/01/26 23:07:31;;;;;;;59.00;21.77;;;;;;;1.26;86.23;101192.38;10184519;29;20084;-75
2023/01/26 23:12:34;;;;;;;62.72;20.95;;;;;;;1.24;86.26;101186.25;10185760;29;20095;-75
2023/01/26 23:17:38;;;;;;;68.60;22.40;;;;;;;1.24;86.35;101183.59;10194631;29;20067;-76
2023/01/26 23:22:41;;;;;;;64.57;22.77;;;;;;;1.24;86.29;101177.44;10190321;29;20059;-75
2023/01/26 23:27:44;;;;;;;59.17;21.00;;;;;;;1.27;86.35;101186.16;10190965;29;20048;-75
2023/01/26 23:32:48;;;;;;;59.83;21.92;;;;;;;1.20;86.55;101179.28;10182606;29;20078;-75
2023/01/26 23:37:51;;;;;;;66.25;22.10;;;;;;;1.30;86.40;101181.69;10192887;29;20143;-75
2023/01/26 23:42:54;;;;;;;65.60;21.98;;;;;;;1.30;86.46;101192.28;10194129;29;20165;-75